Strona główna
METAR-TAF:

METAR-TAF

Lotnisko :

Port lotniczy Wellington

Wellington, Nowa Zelandia

Szerokość geograficzna: 41-20S, Długość geograficzna: 174-48E, wysokość: 12 m

Aktualna obserwacja pogody

Raport powstał 35 minut temu, godzina 01:30 UTC
Wiatr 11 kt od północno-północny wschód, zmienny między północ i północny wschód
Temperatura 15°C
Wilgotność 63%
Ciśnienie 1008 hPa
Widzialność 10 km lub więcej

METAR: NZWN 170130Z AUTO 03011KT 350V050 9999 NCD 15/08 Q1008 NOSIG

czas: 14:05 (02:05 UTC)

Prognoza

Raport powstał 2 godziny i 48 minut temu, godzina 23:17 UTC
Prognoza ważna od 17 godzina 00 UTC do 18 godzina 00 UTC
Wiatr 15 kt od północ
Widzialność 10 km lub więcej
Mało chmury na wysokości 2500 ft
Stopniowe zmiany
od 17 godzina 06 UTC do 17 godzina 08 UTC
Wiatr 5 kt od północny wschód

TAF: NZWN 162317Z 1700/1800 36015KT 9999 FEW025 BECMG 1706/1708 04005KT

Obserwacja i prognoza pogody dla ponad 4000 lotnisk (raport METAR i TAF).

Dostępne stacje oznaczono żółtymi i czerwonymi punktami na mapie.

Najedź kursorem aby zobaczyć nazwę stacji.

Kliknij aby zobaczyć obserwacje i prognozy pogody.

Aby zmienić mapę: kliknij na zielony przycisk z czarnym krzyżykiem, aby powiększyć; na zielony przycisk z myślnikiem, aby pomniejszyć; na zielone strzałki, aby przejść do map sąsiednich.


METAR-TAF: